Time;durP1;ratioP1;P1;durP2;ratioP2;P2;SDS_P1;SDS_P2;PMS_P1;PMS_P2;Temp;Humidity;BMP_temperature;BMP_pressure;BME280_temperature;BME280_humidity;BME280_pressure;Samples;Min_cycle;Max_cycle;Signal;HPM_P1;HPM_P2
2023/05/10 00:00:24;;;;;;;8.60;7.53;;;13.00;99.90;;;;;;5111982;27;20448;-76
2023/05/10 00:02:49;;;;;;;7.68;7.07;;;13.00;99.90;;;;;;5119027;27;20415;-77
2023/05/10 00:05:15;;;;;;;9.47;8.57;;;13.00;99.90;;;;;;5113798;27;20497;-76
2023/05/10 00:07:44;;;;;;;9.07;8.27;;;13.00;99.90;;;;;;5118516;27;20418;-77
2023/05/10 00:10:10;;;;;;;11.57;10.40;;;13.10;99.90;;;;;;5119278;27;20450;-78
2023/05/10 00:12:36;;;;;;;11.60;10.50;;;12.80;99.90;;;;;;5106589;27;20475;-78
2023/05/10 00:15:02;;;;;;;12.73;11.52;;;13.00;99.90;;;;;;5094260;27;20430;-78
2023/05/10 00:17:28;;;;;;;14.95;13.55;;;12.90;99.90;;;;;;5093661;28;20910;-77
2023/05/10 00:19:54;;;;;;;15.15;13.65;;;13.00;99.90;;;;;;5107558;27;20412;-77
2023/05/10 00:22:20;;;;;;;15.95;13.90;;;12.80;99.90;;;;;;5116169;27;20922;-77
2023/05/10 00:24:46;;;;;;;15.38;13.90;;;12.80;99.90;;;;;;5116585;27;20439;-77
2023/05/10 00:27:11;;;;;;;16.60;14.85;;;12.80;99.90;;;;;;5080471;28;20477;-78
2023/05/10 00:29:37;;;;;;;16.92;15.23;;;12.80;99.90;;;;;;5088785;27;20436;-76
2023/05/10 00:32:03;;;;;;;13.47;12.27;;;12.80;99.90;;;;;;5109452;27;20498;-77
2023/05/10 00:34:28;;;;;;;14.23;12.93;;;13.00;99.90;;;;;;5102854;28;20476;-77
2023/05/10 00:36:54;;;;;;;12.90;11.57;;;12.90;99.90;;;;;;5117503;27;20416;-77
2023/05/10 00:39:20;;;;;;;11.53;10.33;;;12.60;99.90;;;;;;5117828;27;20416;-77
2023/05/10 00:41:45;;;;;;;13.48;12.27;;;12.90;99.90;;;;;;5104432;27;20424;-76
2023/05/10 00:44:11;;;;;;;13.05;11.68;;;12.80;99.90;;;;;;5107536;28;20427;-78
2023/05/10 00:46:37;;;;;;;12.52;11.43;;;12.90;99.90;;;;;;5109559;27;20573;-76
2023/05/10 00:49:03;;;;;;;12.73;11.43;;;12.70;99.90;;;;;;5120299;27;20427;-77
2023/05/10 00:51:28;;;;;;;12.13;11.03;;;12.70;99.90;;;;;;5092035;28;20426;-77
2023/05/10 00:53:55;;;;;;;10.87;9.87;;;12.90;99.90;;;;;;5108380;27;20507;-78
2023/05/10 00:56:23;;;;;;;12.02;10.93;;;12.70;99.90;;;;;;5089461;27;20423;-77
2023/05/10 00:58:49;;;;;;;13.85;11.73;;;12.80;99.90;;;;;;5113369;27;20483;-77
2023/05/10 01:01:14;;;;;;;11.82;10.73;;;12.80;99.90;;;;;;5096879;27;22511;-77
2023/05/10 01:03:41;;;;;;;11.07;10.18;;;12.80;99.90;;;;;;5113827;27;20506;-77
2023/05/10 01:06:07;;;;;;;11.13;10.13;;;12.90;99.90;;;;;;5097523;27;20458;-77
2023/05/10 01:08:33;;;;;;;9.95;9.15;;;12.70;99.90;;;;;;5111913;27;20788;-78
2023/05/10 01:10:59;;;;;;;10.65;9.55;;;12.70;99.90;;;;;;5108063;27;20421;-76
2023/05/10 01:13:34;;;;;;;10.60;9.60;;;12.80;99.90;;;;;;5105214;27;20430;-76
2023/05/10 01:16:03;;;;;;;13.40;10.20;;;12.90;99.90;;;;;;5100471;27;20463;-76
2023/05/10 01:18:41;;;;;;;12.23;11.02;;;12.70;99.90;;;;;;5089599;27;20419;-80
2023/05/10 01:21:44;;;;;;;11.48;10.23;;;12.80;99.90;;;;;;5094255;27;20418;-78
2023/05/10 01:24:16;;;;;;;12.00;10.80;;;12.70;99.90;;;;;;5111665;27;20414;-77
2023/05/10 01:26:59;;;;;;;11.70;10.50;;;12.70;99.90;;;;;;5092883;27;20416;-77
2023/05/10 01:29:44;;;;;;;12.55;11.25;;;12.60;99.90;;;;;;5080940;28;20496;-78
2023/05/10 01:32:25;;;;;;;12.93;11.50;;;12.70;99.90;;;;;;5092639;28;20464;-77
2023/05/10 01:35:10;;;;;;;11.95;10.18;;;12.70;99.90;;;;;;5117397;27;20421;-76
2023/05/10 01:37:45;;;;;;;14.83;11.07;;;12.70;99.90;;;;;;5110655;27;20771;-77
2023/05/10 01:40:48;;;;;;;14.77;12.02;;;12.50;99.90;;;;;;5116960;27;20414;-77
2023/05/10 01:43:23;;;;;;;18.48;13.05;;;12.70;99.90;;;;;;5111828;27;20914;-77
2023/05/10 01:45:59;;;;;;;20.57;13.77;;;12.60;99.90;;;;;;5097898;27;20425;-77
2023/05/10 01:48:27;;;;;;;22.70;15.23;;;12.70;99.90;;;;;;5104368;27;20488;-77
2023/05/10 01:50:55;;;;;;;23.95;16.63;;;12.80;99.90;;;;;;5106916;28;20424;-76
2023/05/10 01:53:22;;;;;;;27.33;16.10;;;12.70;99.90;;;;;;5105150;28;20478;-77
2023/05/10 01:55:55;;;;;;;30.17;19.13;;;12.60;99.90;;;;;;5091166;28;20466;-78
2023/05/10 01:58:27;;;;;;;28.40;18.40;;;12.50;99.90;;;;;;5089125;28;20537;-76
2023/05/10 02:00:53;;;;;;;36.90;21.40;;;12.50;99.90;;;;;;5113603;28;21682;-76
2023/05/10 02:03:23;;;;;;;29.05;20.33;;;12.60;99.90;;;;;;5101831;28;20771;-76
2023/05/10 02:05:50;;;;;;;36.17;20.63;;;12.70;99.90;;;;;;5099123;28;20474;-78
2023/05/10 02:08:17;;;;;;;39.30;22.13;;;12.60;99.90;;;;;;5110056;28;20975;-78
2023/05/10 02:10:46;;;;;;;34.30;21.63;;;12.60;99.90;;;;;;5111344;28;20476;-77
2023/05/10 02:13:13;;;;;;;34.85;22.60;;;12.70;99.90;;;;;;5122154;28;20414;-77
2023/05/10 02:15:41;;;;;;;28.33;21.47;;;12.60;99.90;;;;;;5100364;28;20428;-76
2023/05/10 02:18:07;;;;;;;29.08;21.27;;;12.60;99.90;;;;;;5114756;28;20424;-75
2023/05/10 02:20:34;;;;;;;27.70;21.40;;;12.60;99.90;;;;;;5105438;28;20408;-79
2023/05/10 02:23:03;;;;;;;28.25;20.92;;;12.60;99.90;;;;;;5106682;28;20748;-75
2023/05/10 02:25:30;;;;;;;29.20;21.83;;;12.70;99.90;;;;;;5106190;28;20468;-77
2023/05/10 02:27:59;;;;;;;38.25;23.67;;;12.80;99.90;;;;;;5106962;28;20442;-76
2023/05/10 02:30:25;;;;;;;33.88;23.35;;;12.70;99.90;;;;;;5106665;28;20429;-78
2023/05/10 02:32:52;;;;;;;36.17;23.73;;;12.80;99.90;;;;;;5097155;28;20414;-77
2023/05/10 02:35:19;;;;;;;29.67;21.95;;;12.70;99.90;;;;;;5102273;28;20503;-77
2023/05/10 02:37:46;;;;;;;33.70;22.95;;;12.80;99.90;;;;;;5105458;28;20469;-77
2023/05/10 02:40:13;;;;;;;30.80;22.40;;;12.70;99.90;;;;;;5107719;28;20515;-77
2023/05/10 02:42:42;;;;;;;30.80;22.85;;;12.60;99.90;;;;;;5113208;28;20419;-78
2023/05/10 02:45:11;;;;;;;26.40;20.58;;;12.60;99.90;;;;;;5093152;28;20442;-78
2023/05/10 02:47:38;;;;;;;32.50;23.23;;;12.60;99.90;;;;;;5097453;28;20514;-78
2023/05/10 02:50:04;;;;;;;29.05;21.98;;;12.60;99.90;;;;;;5085102;28;20428;-77
2023/05/10 02:52:38;;;;;;;31.58;20.92;;;12.60;99.90;;;;;;5106221;28;20473;-77
2023/05/10 02:55:05;;;;;;;27.77;20.70;;;12.60;99.90;;;;;;5093981;28;20408;-77
2023/05/10 02:57:38;;;;;;;31.20;20.60;;;12.60;99.90;;;;;;5102672;27;20826;-79
2023/05/10 03:00:04;;;;;;;26.90;18.90;;;12.70;99.90;;;;;;5104309;27;20422;-77
2023/05/10 03:02:30;;;;;;;27.70;19.20;;;12.60;99.90;;;;;;5117269;27;20460;-76
2023/05/10 03:04:56;;;;;;;24.90;19.35;;;12.50;99.90;;;;;;5103476;27;20513;-77
2023/05/10 03:07:22;;;;;;;27.92;20.90;;;12.70;99.90;;;;;;5098721;27;20438;-77
2023/05/10 03:09:49;;;;;;;25.98;19.05;;;12.60;99.90;;;;;;5090711;28;20424;-76
2023/05/10 03:12:33;;;;;;;24.90;19.00;;;12.70;99.90;;;;;;5090863;27;20481;-77
2023/05/10 03:15:21;;;;;;;26.58;18.80;;;12.50;99.90;;;;;;5112195;27;20841;-78
2023/05/10 03:18:03;;;;;;;21.73;16.98;;;12.50;99.90;;;;;;5093122;27;20494;-77
2023/05/10 03:20:50;;;;;;;20.80;16.77;;;12.60;99.90;;;;;;5098479;28;20428;-77
2023/05/10 03:23:26;;;;;;;24.52;17.40;;;12.50;99.90;;;;;;5115735;27;20426;-77
2023/05/10 03:25:52;;;;;;;24.35;16.83;;;12.60;99.90;;;;;;5108781;27;20410;-78
2023/05/10 03:28:20;;;;;;;22.83;17.17;;;12.60;99.90;;;;;;5106410;27;20421;-77
2023/05/10 03:30:46;;;;;;;21.80;17.30;;;12.60;99.90;;;;;;5115164;27;20462;-77
2023/05/10 03:33:13;;;;;;;18.33;15.80;;;12.70;99.90;;;;;;5127068;27;20410;-76
2023/05/10 03:35:39;;;;;;;21.55;16.17;;;12.40;99.90;;;;;;5097980;28;20429;-75
2023/05/10 03:38:04;;;;;;;19.13;15.02;;;12.50;99.90;;;;;;5110595;27;20410;-77
2023/05/10 03:40:31;;;;;;;19.92;15.63;;;12.60;99.90;;;;;;5108736;27;20815;-76
2023/05/10 03:43:00;;;;;;;22.00;15.95;;;12.60;99.90;;;;;;5107835;27;20490;-76
2023/05/10 03:45:26;;;;;;;18.05;14.40;;;12.60;99.90;;;;;;5120055;27;20516;-78
2023/05/10 03:47:52;;;;;;;18.35;15.43;;;12.60;99.90;;;;;;5108214;28;20470;-78
2023/05/10 03:50:18;;;;;;;20.67;15.80;;;12.70;99.90;;;;;;5121515;27;20427;-77
2023/05/10 03:52:44;;;;;;;18.43;15.57;;;12.70;99.90;;;;;;5107448;27;20828;-75
2023/05/10 03:55:10;;;;;;;22.07;16.50;;;12.50;99.90;;;;;;5109670;27;20423;-78
2023/05/10 03:57:36;;;;;;;19.42;17.08;;;12.40;99.90;;;;;;5103831;27;20422;-76
2023/05/10 04:00:02;;;;;;;17.73;15.17;;;12.50;99.90;;;;;;5108090;27;20423;-76
2023/05/10 04:02:29;;;;;;;18.08;16.27;;;12.60;99.90;;;;;;5117165;27;20412;-77
2023/05/10 04:04:55;;;;;;;16.93;15.10;;;12.50;99.90;;;;;;5115610;27;20432;-78
2023/05/10 04:07:21;;;;;;;19.23;16.83;;;12.40;99.90;;;;;;5101972;27;20467;-77
2023/05/10 04:09:46;;;;;;;17.97;16.03;;;12.50;99.90;;;;;;5108515;28;20507;-76
2023/05/10 04:12:12;;;;;;;18.17;15.93;;;12.60;99.90;;;;;;5116662;27;21039;-76
2023/05/10 04:14:38;;;;;;;17.75;14.75;;;12.60;99.90;;;;;;5126475;27;20886;-77
2023/05/10 04:17:03;;;;;;;14.65;13.15;;;12.30;99.90;;;;;;5120359;27;20430;-77
2023/05/10 04:19:32;;;;;;;13.65;12.25;;;12.40;99.90;;;;;;5109377;27;20439;-77
2023/05/10 04:21:58;;;;;;;12.90;11.73;;;12.50;99.90;;;;;;5110119;27;20399;-76
2023/05/10 04:24:24;;;;;;;11.30;10.30;;;12.30;99.90;;;;;;5110236;27;20419;-77
2023/05/10 04:26:50;;;;;;;11.85;10.63;;;12.50;99.90;;;;;;5104255;27;20416;-77
2023/05/10 04:29:16;;;;;;;10.57;9.63;;;12.50;99.90;;;;;;5107999;27;20877;-77
2023/05/10 04:31:42;;;;;;;8.60;7.80;;;12.50;99.90;;;;;;5104969;27;20414;-77
2023/05/10 04:34:07;;;;;;;4.97;4.53;;;12.50;99.90;;;;;;5107331;27;20434;-76
2023/05/10 04:36:35;;;;;;;2.60;2.28;;;12.30;99.90;;;;;;5115839;27;20802;-76
2023/05/10 04:39:02;;;;;;;3.05;1.45;;;12.50;99.90;;;;;;5095857;28;20509;-78
2023/05/10 04:41:28;;;;;;;1.75;1.65;;;12.20;99.90;;;;;;5112408;27;20422;-78
2023/05/10 04:43:54;;;;;;;4.00;2.28;;;12.40;99.90;;;;;;5105081;27;20424;-77
2023/05/10 04:46:19;;;;;;;2.10;1.90;;;12.30;99.90;;;;;;5108069;27;20428;-76
2023/05/10 04:48:45;;;;;;;2.05;1.80;;;12.50;99.90;;;;;;5101684;27;20418;-77
2023/05/10 04:51:11;;;;;;;1.47;1.37;;;12.30;99.90;;;;;;5086203;28;20431;-76
2023/05/10 04:53:36;;;;;;;0.90;0.90;;;12.40;99.90;;;;;;5100579;27;20412;-77
2023/05/10 04:56:02;;;;;;;2.20;0.50;;;12.50;99.90;;;;;;5111506;27;20413;-78
2023/05/10 04:58:28;;;;;;;0.40;0.40;;;12.30;99.90;;;;;;5094746;27;20404;-75
2023/05/10 05:00:54;;;;;;;0.40;0.30;;;12.30;99.90;;;;;;5066910;28;20557;-76
2023/05/10 05:03:19;;;;;;;0.40;0.30;;;12.40;99.90;;;;;;5112595;27;20402;-77
2023/05/10 05:05:45;;;;;;;0.70;0.30;;;12.30;99.90;;;;;;5117675;27;20451;-76
2023/05/10 05:08:11;;;;;;;0.47;0.30;;;12.30;99.90;;;;;;5108052;28;20499;-77
2023/05/10 05:10:36;;;;;;;1.50;0.30;;;12.50;99.90;;;;;;5105775;27;20434;-77
2023/05/10 05:13:02;;;;;;;0.37;0.37;;;12.30;99.90;;;;;;5089125;28;20502;-76
2023/05/10 05:15:27;;;;;;;1.90;0.30;;;12.40;99.90;;;;;;5109505;27;20799;-76
2023/05/10 05:17:53;;;;;;;0.80;0.30;;;12.30;99.90;;;;;;5105256;27;20422;-76
2023/05/10 05:20:19;;;;;;;2.40;0.65;;;12.40;99.90;;;;;;5092260;27;20510;-77
2023/05/10 05:22:45;;;;;;;0.50;0.40;;;12.30;99.90;;;;;;5122011;27;20453;-76
2023/05/10 05:25:11;;;;;;;1.10;0.60;;;12.40;99.90;;;;;;5104729;27;20428;-74
2023/05/10 05:27:37;;;;;;;0.50;0.50;;;12.40;99.90;;;;;;5090926;28;20443;-76
2023/05/10 05:30:04;;;;;;;1.63;0.40;;;12.40;99.90;;;;;;5078730;27;20755;-78
2023/05/10 05:32:30;;;;;;;1.35;0.50;;;12.30;99.90;;;;;;5096695;27;20425;-76
2023/05/10 05:34:56;;;;;;;1.67;0.50;;;12.30;99.90;;;;;;5093216;28;21060;-74
2023/05/10 05:37:22;;;;;;;1.83;0.30;;;12.50;99.90;;;;;;5103827;28;20521;-75
2023/05/10 05:39:48;;;;;;;1.92;0.40;;;12.40;99.90;;;;;;5102267;27;20418;-78
2023/05/10 05:42:16;;;;;;;0.52;0.40;;;12.30;99.90;;;;;;5107098;28;20410;-75
2023/05/10 05:44:42;;;;;;;0.40;0.30;;;12.30;99.90;;;;;;5128740;27;20430;-76
2023/05/10 05:47:07;;;;;;;1.48;0.40;;;12.20;99.90;;;;;;5102550;27;20414;-75
2023/05/10 05:49:33;;;;;;;0.60;0.40;;;12.20;99.90;;;;;;5100267;27;20423;-77
2023/05/10 05:52:03;;;;;;;0.95;0.50;;;12.40;99.90;;;;;;5116499;28;20776;-76
2023/05/10 05:54:29;;;;;;;1.27;0.38;;;12.30;99.90;;;;;;5106100;28;20434;-75
2023/05/10 05:56:58;;;;;;;0.77;0.77;;;12.40;99.90;;;;;;5059004;28;20504;-75
2023/05/10 05:59:24;;;;;;;1.02;0.50;;;12.30;99.90;;;;;;5095167;28;20901;-75
2023/05/10 06:01:50;;;;;;;0.70;0.50;;;12.40;99.90;;;;;;5101627;28;20428;-76
2023/05/10 06:04:17;;;;;;;1.42;0.47;;;12.40;99.90;;;;;;5111535;28;20408;-77
2023/05/10 06:06:43;;;;;;;0.88;0.35;;;12.40;99.90;;;;;;5113417;28;20447;-75
2023/05/10 06:09:09;;;;;;;1.85;0.70;;;12.40;99.90;;;;;;5122543;28;20491;-75
2023/05/10 06:11:35;;;;;;;0.90;0.85;;;12.70;99.90;;;;;;5102232;28;20418;-77
2023/05/10 06:14:01;;;;;;;1.10;1.00;;;12.60;99.90;;;;;;5105289;28;20422;-76
2023/05/10 06:16:27;;;;;;;0.80;0.80;;;12.60;99.90;;;;;;5104359;28;20432;-75
2023/05/10 06:18:53;;;;;;;1.98;1.33;;;12.60;99.90;;;;;;5102825;28;20412;-76
2023/05/10 06:21:19;;;;;;;0.93;0.93;;;12.50;99.90;;;;;;5106951;28;20439;-76
2023/05/10 06:23:44;;;;;;;1.27;1.17;;;12.50;99.90;;;;;;5119266;28;20430;-75
2023/05/10 06:26:10;;;;;;;1.30;1.20;;;12.70;99.90;;;;;;5119430;28;20456;-75
2023/05/10 06:28:38;;;;;;;1.58;1.48;;;12.70;99.90;;;;;;5110565;28;20416;-77
2023/05/10 06:31:04;;;;;;;1.60;1.50;;;12.80;99.90;;;;;;5111524;28;20482;-75
2023/05/10 06:33:30;;;;;;;1.80;1.70;;;12.60;99.90;;;;;;5130262;27;20483;-76
2023/05/10 06:35:56;;;;;;;1.83;1.52;;;12.70;99.90;;;;;;5100748;27;20422;-76
2023/05/10 06:38:21;;;;;;;2.17;1.80;;;12.60;99.90;;;;;;5096846;28;20756;-75
2023/05/10 06:40:47;;;;;;;1.45;1.33;;;12.70;99.90;;;;;;5103536;28;20412;-77
2023/05/10 06:43:13;;;;;;;2.10;1.90;;;12.70;99.90;;;;;;5093541;28;20418;-75
2023/05/10 06:45:39;;;;;;;5.00;2.45;;;12.80;99.90;;;;;;5091445;28;20432;-75
2023/05/10 06:48:05;;;;;;;1.67;1.50;;;12.70;99.90;;;;;;5098965;27;20939;-77
2023/05/10 06:50:30;;;;;;;1.60;1.50;;;12.80;99.90;;;;;;5132357;27;20509;-76
2023/05/10 06:52:56;;;;;;;1.90;1.73;;;12.80;99.90;;;;;;5113173;27;20415;-75
2023/05/10 06:55:22;;;;;;;3.00;2.30;;;13.00;99.90;;;;;;5125095;27;20438;-76
2023/05/10 06:57:47;;;;;;;1.40;1.30;;;13.10;99.90;;;;;;5109633;28;20432;-76
2023/05/10 07:00:14;;;;;;;1.73;1.40;;;13.00;99.90;;;;;;5101718;27;20424;-77
2023/05/10 07:02:40;;;;;;;1.40;1.30;;;13.00;99.90;;;;;;5106287;27;20423;-77
2023/05/10 07:05:06;;;;;;;1.70;1.60;;;13.20;99.90;;;;;;5093831;28;20816;-75
2023/05/10 07:07:31;;;;;;;2.08;1.33;;;13.30;99.90;;;;;;5106435;27;20926;-75
2023/05/10 07:09:57;;;;;;;2.63;1.60;;;13.20;99.90;;;;;;5108104;27;20505;-74
2023/05/10 07:12:24;;;;;;;2.47;1.60;;;13.50;99.90;;;;;;5068954;28;20851;-79
2023/05/10 07:14:50;;;;;;;2.17;1.27;;;13.40;99.90;;;;;;5106770;27;20789;-75
2023/05/10 07:17:15;;;;;;;3.00;1.33;;;13.40;99.90;;;;;;5103515;27;20421;-77
2023/05/10 07:19:41;;;;;;;2.60;1.17;;;13.50;99.90;;;;;;5129697;27;20585;-77
2023/05/10 07:22:07;;;;;;;1.27;1.10;;;13.30;99.90;;;;;;5097961;28;20419;-76
2023/05/10 07:24:33;;;;;;;2.15;1.10;;;13.30;99.90;;;;;;5108451;27;20916;-74
2023/05/10 07:26:59;;;;;;;1.27;1.17;;;13.30;99.90;;;;;;5097915;27;20418;-74
2023/05/10 07:29:25;;;;;;;3.17;1.50;;;13.50;99.90;;;;;;5121805;27;20428;-74
2023/05/10 07:31:51;;;;;;;7.20;1.60;;;13.30;99.90;;;;;;5123660;27;20967;-74
2023/05/10 07:34:16;;;;;;;1.90;1.80;;;13.10;99.90;;;;;;5087450;27;20516;-74
2023/05/10 07:36:42;;;;;;;2.40;1.60;;;13.20;99.90;;;;;;5114940;27;20917;-76
2023/05/10 07:39:08;;;;;;;1.55;1.30;;;13.10;99.90;;;;;;5085044;28;20469;-75
2023/05/10 07:41:33;;;;;;;1.30;1.20;;;13.20;99.90;;;;;;5103004;28;20923;-75
2023/05/10 07:43:59;;;;;;;2.33;1.80;;;13.40;99.90;;;;;;5090152;27;20472;-74
2023/05/10 07:46:25;;;;;;;1.70;1.40;;;13.50;99.90;;;;;;5111999;27;20787;-75
2023/05/10 07:48:50;;;;;;;2.33;1.30;;;13.50;99.90;;;;;;5116693;27;20779;-75
2023/05/10 07:51:16;;;;;;;2.00;1.60;;;13.40;99.90;;;;;;5126972;27;20506;-75
2023/05/10 07:53:42;;;;;;;2.35;1.63;;;13.40;99.90;;;;;;5089559;27;20450;-74
2023/05/10 07:56:26;;;;;;;3.40;2.38;;;13.30;99.90;;;;;;5121412;27;20436;-74
2023/05/10 07:58:52;;;;;;;3.80;3.28;;;13.10;99.90;;;;;;5105527;27;20423;-74
2023/05/10 08:01:18;;;;;;;4.38;3.15;;;13.10;99.90;;;;;;5089710;28;20979;-75
2023/05/10 08:03:44;;;;;;;4.25;3.03;;;13.10;99.90;;;;;;5110122;27;20445;-74
2023/05/10 08:06:09;;;;;;;4.33;3.70;;;13.10;99.90;;;;;;5126209;27;20461;-75
2023/05/10 08:08:35;;;;;;;7.00;4.60;;;13.00;99.90;;;;;;5111912;27;20418;-77
2023/05/10 08:11:01;;;;;;;6.20;4.43;;;13.00;99.90;;;;;;5070715;28;20442;-75
2023/05/10 08:13:27;;;;;;;7.70;4.60;;;13.10;99.90;;;;;;5087879;28;21176;-75
2023/05/10 08:15:53;;;;;;;6.27;4.73;;;13.10;99.90;;;;;;5116686;27;20835;-75
2023/05/10 08:18:19;;;;;;;6.72;4.55;;;13.00;99.90;;;;;;5123271;27;20402;-73
2023/05/10 08:20:45;;;;;;;6.05;5.45;;;13.10;99.90;;;;;;5104087;27;20451;-75
2023/05/10 08:23:12;;;;;;;6.17;5.43;;;13.00;99.90;;;;;;5097932;27;20485;-75
2023/05/10 08:25:38;;;;;;;4.90;4.30;;;13.10;99.90;;;;;;5118567;27;20443;-75
2023/05/10 08:28:04;;;;;;;5.18;4.50;;;13.10;99.90;;;;;;5107663;28;20459;-75
2023/05/10 08:30:29;;;;;;;6.40;4.30;;;13.20;99.90;;;;;;5080602;27;20482;-75
2023/05/10 08:32:55;;;;;;;4.45;4.03;;;13.30;99.90;;;;;;5093121;27;20413;-75
2023/05/10 08:35:21;;;;;;;5.23;4.73;;;13.20;99.90;;;;;;5096813;27;20418;-76
2023/05/10 08:37:46;;;;;;;6.17;5.33;;;13.30;99.90;;;;;;5070561;28;20872;-75
2023/05/10 08:40:13;;;;;;;6.75;5.55;;;13.20;99.90;;;;;;5110493;27;20769;-75
2023/05/10 08:42:43;;;;;;;7.25;5.55;;;13.30;99.90;;;;;;5114168;27;20923;-76
2023/05/10 08:45:10;;;;;;;5.85;5.32;;;13.30;99.90;;;;;;5114854;27;20427;-75
2023/05/10 08:47:37;;;;;;;9.48;5.70;;;13.30;99.90;;;;;;5087974;28;20481;-75
2023/05/10 08:50:03;;;;;;;7.93;5.90;;;13.50;99.90;;;;;;5099097;27;20429;-76
2023/05/10 08:52:31;;;;;;;6.35;5.30;;;13.80;99.90;;;;;;5053344;28;20406;-76
2023/05/10 08:54:57;;;;;;;7.53;5.47;;;13.60;99.90;;;;;;5084838;27;20417;-76
2023/05/10 08:57:22;;;;;;;7.87;4.80;;;13.80;99.90;;;;;;5110617;27;20495;-76
2023/05/10 08:59:48;;;;;;;6.60;5.55;;;13.90;99.90;;;;;;5111904;27;20432;-75
2023/05/10 09:02:14;;;;;;;8.02;4.97;;;13.80;99.90;;;;;;5103995;28;20428;-77
2023/05/10 09:04:40;;;;;;;6.78;4.63;;;14.00;99.90;;;;;;5106438;27;20438;-78
2023/05/10 09:07:07;;;;;;;9.27;5.53;;;14.10;99.90;;;;;;5112399;27;20475;-77
2023/05/10 09:09:33;;;;;;;6.57;5.25;;;14.10;99.90;;;;;;5085616;28;20420;-77
2023/05/10 09:11:59;;;;;;;5.40;4.88;;;14.00;99.90;;;;;;5107165;27;20417;-78
2023/05/10 09:14:26;;;;;;;5.80;5.30;;;14.30;99.90;;;;;;5093076;27;20415;-79
2023/05/10 09:16:53;;;;;;;6.78;5.78;;;14.30;99.90;;;;;;5121707;27;20420;-79
2023/05/10 09:19:19;;;;;;;6.28;5.05;;;14.30;99.90;;;;;;5120788;27;20414;-78
2023/05/10 09:21:45;;;;;;;5.65;4.97;;;14.40;99.90;;;;;;5095900;27;20456;-78
2023/05/10 09:24:11;;;;;;;8.80;6.40;;;14.40;99.90;;;;;;5126932;27;20417;-75
2023/05/10 09:26:47;;;;;;;6.03;5.43;;;14.30;99.90;;;;;;5107834;27;20443;-77
2023/05/10 09:29:13;;;;;;;6.70;5.13;;;14.60;99.90;;;;;;5119001;27;20480;-78
2023/05/10 09:31:50;;;;;;;6.60;5.95;;;14.90;99.90;;;;;;5115810;27;20416;-76
2023/05/10 09:34:20;;;;;;;6.95;6.00;;;14.70;99.90;;;;;;5123722;27;20418;-78
2023/05/10 09:37:00;;;;;;;8.60;5.85;;;14.40;99.90;;;;;;5099243;28;20448;-77
2023/05/10 09:39:33;;;;;;;6.55;5.80;;;14.40;99.90;;;;;;5104848;27;20420;-76
2023/05/10 09:42:07;;;;;;;9.02;6.13;;;14.80;99.90;;;;;;5102027;27;20402;-78
2023/05/10 09:44:34;;;;;;;7.55;5.68;;;14.80;99.90;;;;;;5081563;28;20995;-79
2023/05/10 09:47:00;;;;;;;6.05;5.45;;;14.80;99.90;;;;;;5109173;28;20789;-78
2023/05/10 09:49:26;;;;;;;6.30;5.68;;;14.90;99.90;;;;;;5102830;28;20440;-77
2023/05/10 09:52:03;;;;;;;6.40;5.80;;;14.70;99.90;;;;;;5101924;28;20452;-78
2023/05/10 09:54:29;;;;;;;5.60;4.97;;;14.90;99.90;;;;;;5104314;28;20837;-80
2023/05/10 09:56:55;;;;;;;6.90;5.90;;;14.70;99.90;;;;;;5124165;28;20574;-77
2023/05/10 09:59:21;;;;;;;6.93;4.90;;;14.70;99.90;;;;;;5097961;28;20427;-76
2023/05/10 10:01:50;;;;;;;8.70;5.83;;;15.00;99.90;;;;;;5113048;28;20414;-77
2023/05/10 10:04:16;;;;;;;6.97;5.88;;;14.90;99.90;;;;;;5081987;28;20442;-78
2023/05/10 10:06:42;;;;;;;5.43;4.85;;;15.00;99.90;;;;;;5105699;28;20526;-80
2023/05/10 10:09:08;;;;;;;6.70;4.70;;;15.00;99.90;;;;;;5108527;27;20484;-78
2023/05/10 10:11:35;;;;;;;6.47;5.70;;;14.80;99.90;;;;;;5109027;27;20420;-78
2023/05/10 10:14:01;;;;;;;5.72;4.55;;;14.90;99.90;;;;;;5114915;27;20523;-75
2023/05/10 10:16:29;;;;;;;6.57;5.75;;;15.00;99.90;;;;;;5101248;27;20580;-77
2023/05/10 10:18:55;;;;;;;6.35;5.60;;;14.80;99.90;;;;;;5127773;27;20414;-79
2023/05/10 10:21:22;;;;;;;6.53;5.85;;;14.90;99.90;;;;;;5111986;28;20416;-78
2023/05/10 10:23:48;;;;;;;6.55;5.75;;;15.20;99.90;;;;;;5110732;28;20428;-78
2023/05/10 10:26:15;;;;;;;8.23;6.77;;;15.30;99.90;;;;;;5091657;27;20414;-78
2023/05/10 10:29:01;;;;;;;8.02;6.70;;;15.20;99.90;;;;;;5113735;27;20918;-77
2023/05/10 10:32:11;;;;;;;6.85;6.15;;;15.10;99.90;;;;;;5110799;28;20487;-77
2023/05/10 10:34:39;;;;;;;7.32;6.10;;;15.20;99.90;;;;;;5123839;27;20431;-76
2023/05/10 10:37:06;;;;;;;8.45;6.82;;;15.40;99.90;;;;;;5101474;27;20470;-77
2023/05/10 10:39:32;;;;;;;7.07;6.03;;;15.20;99.90;;;;;;5114260;27;20420;-78
2023/05/10 10:41:59;;;;;;;9.13;7.73;;;15.10;99.90;;;;;;5112315;28;20443;-79
2023/05/10 10:44:36;;;;;;;8.35;7.50;;;15.20;99.90;;;;;;5110155;27;20422;-76
2023/05/10 10:47:05;;;;;;;9.15;7.55;;;15.00;99.90;;;;;;5112487;27;20407;-78
2023/05/10 10:49:33;;;;;;;8.68;7.88;;;15.10;99.90;;;;;;5093529;28;20912;-78
2023/05/10 10:52:22;;;;;;;8.98;7.97;;;15.20;99.90;;;;;;5110126;28;20502;-78
2023/05/10 10:54:59;;;;;;;8.32;7.43;;;15.40;99.90;;;;;;5120478;27;20493;-78
2023/05/10 10:57:26;;;;;;;9.32;8.35;;;15.40;99.90;;;;;;5112935;27;20406;-78
2023/05/10 11:00:12;;;;;;;9.05;7.88;;;15.20;99.90;;;;;;5109215;27;20422;-77
2023/05/10 11:02:41;;;;;;;10.40;7.97;;;15.40;99.90;;;;;;5104186;27;20514;-80
2023/05/10 11:05:32;;;;;;;9.57;8.63;;;15.20;99.90;;;;;;5090602;28;20438;-77
2023/05/10 11:07:59;;;;;;;10.00;7.87;;;15.10;99.90;;;;;;5111822;27;20433;-76
2023/05/10 11:10:26;;;;;;;8.80;7.97;;;15.20;99.90;;;;;;5115087;27;20810;-77
2023/05/10 11:12:53;;;;;;;7.78;6.50;;;15.10;99.90;;;;;;5110047;27;20424;-76
2023/05/10 11:15:20;;;;;;;7.63;6.72;;;15.20;99.90;;;;;;5089960;28;20472;-76
2023/05/10 11:17:51;;;;;;;6.38;5.60;;;15.30;99.90;;;;;;5088726;28;20502;-78
2023/05/10 11:20:22;;;;;;;6.05;5.22;;;15.30;99.90;;;;;;5129157;27;20425;-76
2023/05/10 11:22:53;;;;;;;5.70;5.07;;;15.20;99.90;;;;;;5108170;27;20410;-77
2023/05/10 11:25:19;;;;;;;5.40;4.90;;;15.20;99.90;;;;;;5111244;27;20419;-77
2023/05/10 11:27:47;;;;;;;7.50;6.30;;;15.10;99.90;;;;;;5114804;27;20405;-77
2023/05/10 11:30:13;;;;;;;6.78;4.70;;;15.00;99.90;;;;;;5124221;27;20427;-78
2023/05/10 11:32:40;;;;;;;7.03;4.90;;;15.00;99.90;;;;;;5117231;27;20412;-80
2023/05/10 11:35:11;;;;;;;6.23;5.63;;;15.20;99.90;;;;;;5118361;27;20409;-76
2023/05/10 11:37:41;;;;;;;7.50;5.43;;;15.00;99.90;;;;;;5112333;27;21057;-77
2023/05/10 11:40:09;;;;;;;7.50;6.20;;;14.90;99.90;;;;;;5114913;27;20757;-76
2023/05/10 11:42:37;;;;;;;9.93;7.05;;;14.90;99.90;;;;;;5108606;28;20986;-76
2023/05/10 11:45:03;;;;;;;7.95;7.03;;;15.10;99.90;;;;;;5109293;28;20392;-75
2023/05/10 11:47:28;;;;;;;10.32;6.65;;;15.20;99.90;;;;;;5089355;28;20491;-77
2023/05/10 11:49:54;;;;;;;10.65;7.85;;;15.20;99.90;;;;;;5074134;28;20840;-76
2023/05/10 11:52:20;;;;;;;10.50;8.40;;;15.20;99.90;;;;;;5090599;28;20826;-76
2023/05/10 11:54:53;;;;;;;8.87;8.03;;;15.00;99.90;;;;;;5091213;28;20420;-76
2023/05/10 11:57:20;;;;;;;8.73;7.82;;;15.10;99.90;;;;;;5108794;28;20408;-77
2023/05/10 11:59:46;;;;;;;7.45;6.68;;;15.20;99.90;;;;;;5108942;28;20413;-76
2023/05/10 12:02:15;;;;;;;7.03;6.32;;;15.00;99.90;;;;;;5108014;28;20416;-77
2023/05/10 12:04:41;;;;;;;9.95;7.47;;;15.00;99.90;;;;;;5108410;28;20408;-78
2023/05/10 12:07:07;;;;;;;9.20;7.70;;;15.10;99.90;;;;;;5090708;28;20451;-76
2023/05/10 12:09:32;;;;;;;8.07;7.38;;;15.10;99.90;;;;;;5108689;28;20919;-77
2023/05/10 12:11:58;;;;;;;9.00;8.05;;;15.10;99.90;;;;;;5090782;28;20408;-76
2023/05/10 12:14:24;;;;;;;10.43;8.63;;;15.30;99.90;;;;;;5108544;28;20408;-76
2023/05/10 12:16:50;;;;;;;9.27;8.30;;;15.30;99.90;;;;;;5108184;28;20495;-77
2023/05/10 12:19:22;;;;;;;9.43;8.52;;;15.30;99.90;;;;;;5089944;28;20431;-76
2023/05/10 12:21:48;;;;;;;8.90;8.00;;;15.50;99.90;;;;;;5108576;28;20525;-76
2023/05/10 12:24:17;;;;;;;8.75;7.80;;;15.60;99.90;;;;;;5108938;28;20415;-75
2023/05/10 12:26:44;;;;;;;9.48;8.50;;;15.60;99.90;;;;;;5109272;28;20493;-75
2023/05/10 12:29:18;;;;;;;10.13;9.02;;;15.60;99.90;;;;;;5107552;28;20420;-76
2023/05/10 12:31:54;;;;;;;11.15;8.95;;;15.20;99.90;;;;;;5107663;28;20484;-77
2023/05/10 12:34:31;;;;;;;10.07;9.18;;;15.10;99.90;;;;;;5108185;28;20392;-76
2023/05/10 12:36:59;;;;;;;8.27;7.47;;;15.00;99.90;;;;;;5108417;28;20768;-77
2023/05/10 12:39:25;;;;;;;9.27;7.90;;;14.80;99.90;;;;;;5108207;28;20404;-76
2023/05/10 12:41:51;;;;;;;9.63;8.48;;;14.90;99.90;;;;;;5108267;28;20914;-77
2023/05/10 12:44:18;;;;;;;9.00;8.13;;;15.00;99.90;;;;;;5108023;28;20396;-77